Sugar Land Regional Airport Houston US
ICAO: KSGR
IATA: SGR
Category: Medium
Scheduled Services: No

Elevation: 82 ft
TransAlt. 18000 ft.

Airport Communications:
HOUSTON APP/DEP:123.8
ASOS:118.125
CTAF:118.65
GND/CLNC DEL:121.4
TWR:118.65
UNICOM:122.95

KSGR Zoom In..

Runways:

(A) RW 17 length 8000 ft width 100 ft
---- / hdg 170

(B) RW 35 length 8000 ft width 100 ft
ILS 110.70 / hdg 350

Location; KSGR
Day. 15 / Time. 22.53 Zulu
* Altimeter: 29.97
* Temperature: 34° c. 93.2°f.
* Wind from: 190° Speed 08 kn.
Dewpoint: 24° c.
Visibility: 10 Statute Miles.
Clouds: Few 4200 ft.
Clouds: Scattered 6000 ft.

KSGR 152253Z 19008KT 10SM FEW042 SCT060 34/24 A2997 RMK AO2 SLP148 T03390239


Wind From 190°
Speed 08 kn.

 
 
jpsmedia.com for Web Design worldairports.se 2018   terms of use